Time;durP1;ratioP1;P1;durP2;ratioP2;P2;SDS_P1;SDS_P2;PMS_P1;PMS_P2;Temp;Humidity;BMP_temperature;BMP_pressure;BME280_temperature;BME280_humidity;BME280_pressure;Samples;Min_cycle;Max_cycle;Signal;HPM_P1;HPM_P2
2021/07/16 00:02:14;;;;;;;6.40;2.70;;;;;;;19.74;63.19;102182.50;5047809;28;20056;-50
2021/07/16 00:04:42;;;;;;;4.80;2.50;;;;;;;19.86;62.93;102185.13;5040277;28;20064;-41
2021/07/16 00:07:10;;;;;;;5.72;2.72;;;;;;;19.93;62.71;102178.81;5043671;28;20107;-41
2021/07/16 00:09:37;;;;;;;6.55;2.92;;;;;;;19.89;62.71;102181.56;5040416;28;21058;-41
2021/07/16 00:12:07;;;;;;;3.75;2.40;;;;;;;19.90;63.03;102183.19;5040768;28;20052;-42
2021/07/16 00:14:35;;;;;;;6.53;2.25;;;;;;;19.86;63.32;102176.69;5039993;28;20067;-40
2021/07/16 00:17:03;;;;;;;5.47;2.50;;;;;;;19.94;63.17;102181.25;5044352;28;20056;-41
2021/07/16 00:19:29;;;;;;;6.03;3.45;;;;;;;19.95;63.17;102170.81;5021698;28;20056;-41
2021/07/16 00:21:56;;;;;;;7.18;2.50;;;;;;;20.04;62.83;102171.41;5047667;28;20048;-47
2021/07/16 00:24:24;;;;;;;5.25;2.63;;;;;;;19.97;63.03;102169.25;5053184;28;20059;-41
2021/07/16 00:26:51;;;;;;;4.82;2.38;;;;;;;19.86;63.44;102178.69;5048094;28;20057;-45
2021/07/16 00:29:18;;;;;;;3.92;2.70;;;;;;;19.81;63.68;102177.00;5048135;28;20053;-45
2021/07/16 00:31:45;;;;;;;3.75;2.33;;;;;;;19.82;63.51;102172.19;5047142;28;20111;-40
2021/07/16 00:34:12;;;;;;;5.38;2.28;;;;;;;19.95;63.49;102180.06;5044665;28;20106;-44
2021/07/16 00:36:39;;;;;;;2.92;2.55;;;;;;;19.94;63.12;102172.81;5048358;28;20063;-47
2021/07/16 00:39:08;;;;;;;5.65;3.00;;;;;;;19.88;63.53;102177.13;5047276;28;20053;-40
2021/07/16 00:41:36;;;;;;;11.80;3.10;;;;;;;19.81;63.73;102179.81;5044917;28;20052;-42
2021/07/16 00:44:02;;;;;;;3.95;2.70;;;;;;;19.75;63.63;102180.50;5038678;28;20094;-42
2021/07/16 00:46:29;;;;;;;5.47;3.10;;;;;;;19.69;64.12;102180.00;5052182;28;20493;-48
2021/07/16 00:48:56;;;;;;;6.40;2.92;;;;;;;19.66;64.04;102183.56;5028708;28;20809;-41
2021/07/16 00:51:26;;;;;;;5.07;2.60;;;;;;;19.62;64.19;102188.28;5049033;28;20053;-41
2021/07/16 00:53:56;;;;;;;8.20;2.65;;;;;;;19.63;64.49;102181.47;5046254;28;20071;-40
2021/07/16 00:56:26;;;;;;;6.03;2.70;;;;;;;19.59;64.58;102183.38;5029869;28;20174;-40
2021/07/16 00:58:53;;;;;;;5.70;2.63;;;;;;;19.61;64.17;102178.25;5048285;28;20519;-41
2021/07/16 01:01:20;;;;;;;6.43;2.95;;;;;;;19.60;64.36;102187.03;5042855;28;20049;-40
2021/07/16 01:03:50;;;;;;;4.88;2.72;;;;;;;19.57;64.41;102185.78;5046753;28;20068;-44
2021/07/16 01:06:17;;;;;;;7.75;2.83;;;;;;;19.59;64.31;102191.81;5057274;28;20056;-43
2021/07/16 01:08:44;;;;;;;6.18;2.80;;;;;;;19.58;64.72;102195.84;5052607;28;20094;-44
2021/07/16 01:11:11;;;;;;;6.93;3.55;;;;;;;19.57;64.50;102188.56;5051937;28;20060;-41
2021/07/16 01:13:38;;;;;;;8.43;3.10;;;;;;;19.52;64.39;102185.25;5049963;28;20560;-40
2021/07/16 01:16:18;;;;;;;10.27;3.25;;;;;;;19.40;65.04;102194.66;5058307;28;20057;-41
2021/07/16 01:18:45;;;;;;;6.15;3.03;;;;;;;19.41;64.60;102196.28;5044355;28;20048;-44
2021/07/16 01:21:13;;;;;;;8.38;3.60;;;;;;;19.40;65.00;102200.28;5049411;28;20056;-43
2021/07/16 01:23:42;;;;;;;8.40;3.90;;;;;;;19.39;64.94;102195.84;5050063;28;20052;-41
2021/07/16 01:26:09;;;;;;;7.95;4.10;;;;;;;19.28;65.22;102197.56;5049224;28;20490;-41
2021/07/16 01:28:38;;;;;;;6.40;4.57;;;;;;;19.19;65.67;102199.81;5049123;28;20152;-48
2021/07/16 01:31:08;;;;;;;5.43;3.95;;;;;;;19.16;65.76;102197.72;5031531;28;20056;-42
2021/07/16 01:33:36;;;;;;;8.00;5.65;;;;;;;19.20;65.61;102202.22;5044227;28;20052;-41
2021/07/16 01:36:07;;;;;;;7.47;4.38;;;;;;;19.26;65.40;102200.78;5028875;28;20080;-42
2021/07/16 01:38:35;;;;;;;8.60;5.43;;;;;;;19.17;65.69;102199.34;5049570;28;20063;-42
2021/07/16 01:41:04;;;;;;;9.48;5.00;;;;;;;19.11;65.76;102209.25;5049349;28;20118;-41
2021/07/16 01:43:31;;;;;;;9.80;5.10;;;;;;;19.18;65.80;102209.41;5045783;28;20067;-47
2021/07/16 01:46:01;;;;;;;9.15;5.60;;;;;;;19.17;65.67;102204.97;5051480;28;20387;-41
2021/07/16 01:48:30;;;;;;;8.07;5.75;;;;;;;19.14;65.65;102198.09;5038415;28;20161;-41
2021/07/16 01:50:57;;;;;;;9.10;5.32;;;;;;;19.14;65.58;102197.28;5050736;28;20135;-41
2021/07/16 01:53:23;;;;;;;8.40;4.97;;;;;;;19.13;65.66;102206.88;5049165;28;20405;-40
2021/07/16 01:55:57;;;;;;;7.53;5.07;;;;;;;19.10;65.91;102207.63;5046825;28;20136;-40
2021/07/16 01:58:32;;;;;;;7.90;5.72;;;;;;;19.00;65.86;102213.81;5043488;28;20049;-40
2021/07/16 02:00:59;;;;;;;8.95;5.38;;;;;;;18.94;66.31;102206.84;5048015;28;20410;-41
2021/07/16 02:03:26;;;;;;;11.32;5.65;;;;;;;19.00;66.09;102219.44;5033802;28;20172;-40
2021/07/16 02:05:53;;;;;;;9.95;5.13;;;;;;;18.96;66.01;102212.91;5048023;28;20498;-41
2021/07/16 02:08:23;;;;;;;12.20;5.75;;;;;;;18.92;66.20;102214.84;5046487;28;20044;-47
2021/07/16 02:10:55;;;;;;;9.13;5.93;;;;;;;18.82;66.38;102224.66;5041970;28;20073;-42
2021/07/16 02:13:26;;;;;;;9.48;6.38;;;;;;;18.70;66.50;102219.94;5024646;28;20114;-41
2021/07/16 02:15:54;;;;;;;11.70;6.17;;;;;;;18.62;66.68;102226.56;5030926;28;20041;-41
2021/07/16 02:18:23;;;;;;;12.98;7.22;;;;;;;18.59;66.78;102218.06;5025534;28;20107;-40
2021/07/16 02:20:52;;;;;;;13.85;8.35;;;;;;;18.53;67.04;102217.53;5029741;28;20059;-40
2021/07/16 02:23:25;;;;;;;8.65;6.05;;;;;;;18.50;67.32;102211.84;5025951;28;20057;-41
2021/07/16 02:25:53;;;;;;;9.48;5.82;;;;;;;18.50;67.24;102212.66;5036803;28;20586;-41
2021/07/16 02:28:38;;;;;;;11.43;6.30;;;;;;;18.52;67.39;102215.09;5028401;28;20059;-41
2021/07/16 02:31:08;;;;;;;16.73;7.28;;;;;;;18.56;67.07;102216.00;5026561;28;20053;-40
2021/07/16 02:33:36;;;;;;;9.45;6.25;;;;;;;18.54;66.83;102219.16;5031249;28;20527;-44
2021/07/16 02:36:06;;;;;;;12.38;6.80;;;;;;;18.53;66.84;102211.91;5028616;28;20049;-40
2021/07/16 02:38:33;;;;;;;32.67;7.75;;;;;;;18.47;67.23;102213.38;5025244;28;20053;-48
2021/07/16 02:41:00;;;;;;;13.60;5.88;;;;;;;18.40;67.59;102218.78;5023300;28;20049;-41
2021/07/16 02:43:27;;;;;;;11.75;7.07;;;;;;;18.36;67.79;102217.88;5029640;28;20059;-44
2021/07/16 02:45:54;;;;;;;12.73;7.50;;;;;;;18.38;67.80;102221.13;5027761;28;20059;-41
2021/07/16 02:48:21;;;;;;;11.35;5.97;;;;;;;18.37;68.08;102227.94;5024036;28;20050;-42
2021/07/16 02:50:49;;;;;;;11.07;5.63;;;;;;;18.37;68.23;102225.13;5028251;28;20053;-49
2021/07/16 02:53:17;;;;;;;9.15;5.50;;;;;;;18.40;68.41;102229.19;5027724;28;20057;-42
2021/07/16 02:55:44;;;;;;;12.20;5.63;;;;;;;18.51;68.05;102222.69;5026625;28;20184;-44
2021/07/16 02:58:15;;;;;;;8.93;5.40;;;;;;;18.62;68.12;102226.56;5027446;28;20045;-50
2021/07/16 03:00:44;;;;;;;11.40;7.18;;;;;;;18.68;67.82;102219.50;5023393;28;20053;-40
2021/07/16 03:03:13;;;;;;;12.18;5.30;;;;;;;18.68;68.01;102233.53;5027676;28;20152;-43
2021/07/16 03:05:40;;;;;;;9.02;5.85;;;;;;;18.61;68.16;102224.94;5028250;28;20054;-41
2021/07/16 03:08:10;;;;;;;10.30;4.97;;;;;;;18.55;68.55;102219.97;5033195;28;20184;-44
2021/07/16 03:10:45;;;;;;;10.98;5.35;;;;;;;18.59;68.65;102227.28;5034287;28;20060;-47
2021/07/16 03:13:17;;;;;;;9.38;5.93;;;;;;;18.61;68.81;102224.94;5042567;28;20406;-44
2021/07/16 03:15:47;;;;;;;9.90;5.60;;;;;;;18.64;68.71;102224.22;5044284;28;20403;-52
2021/07/16 03:18:16;;;;;;;13.52;6.15;;;;;;;18.72;68.66;102234.41;5048299;28;20134;-42
2021/07/16 03:20:45;;;;;;;10.50;6.32;;;;;;;18.81;68.31;102239.84;5046417;28;20056;-56
2021/07/16 03:23:14;;;;;;;10.32;6.43;;;;;;;18.85;67.99;102233.13;5043656;28;20049;-50
2021/07/16 03:25:42;;;;;;;9.65;6.10;;;;;;;18.88;68.17;102237.19;5044362;28;20159;-48
2021/07/16 03:28:11;;;;;;;11.10;6.35;;;;;;;18.88;68.34;102239.22;5047230;28;20049;-47
2021/07/16 03:30:41;;;;;;;9.65;6.10;;;;;;;18.85;68.49;102238.75;5009338;28;20485;-42
2021/07/16 03:33:10;;;;;;;10.10;6.78;;;;;;;18.90;68.52;102248.91;5050151;28;20061;-45
2021/07/16 03:35:40;;;;;;;11.05;6.10;;;;;;;18.87;68.55;102246.81;5044595;28;20058;-43
2021/07/16 03:38:07;;;;;;;8.57;5.57;;;;;;;18.90;68.49;102248.06;5045356;28;20044;-49
2021/07/16 03:40:36;;;;;;;12.50;6.80;;;;;;;18.91;68.42;102244.88;5045521;28;21086;-44
2021/07/16 03:43:03;;;;;;;12.45;6.20;;;;;;;18.90;68.40;102250.88;5024232;28;20080;-45
2021/07/16 03:45:33;;;;;;;10.05;5.95;;;;;;;18.94;68.26;102244.16;5043464;28;20155;-48
2021/07/16 03:48:00;;;;;;;14.02;5.88;;;;;;;18.96;68.40;102246.59;5045497;28;20049;-43
2021/07/16 03:50:27;;;;;;;10.57;6.65;;;;;;;18.95;68.38;102251.41;5044064;28;20040;-54
2021/07/16 03:52:54;;;;;;;13.13;6.18;;;;;;;18.96;68.60;102247.41;5050137;28;20054;-47
2021/07/16 03:55:21;;;;;;;11.02;5.78;;;;;;;19.02;68.47;102254.38;5046619;28;20061;-50
2021/07/16 03:57:49;;;;;;;10.32;6.50;;;;;;;19.04;68.33;102251.19;5046785;28;20111;-45
2021/07/16 04:00:22;;;;;;;10.65;5.95;;;;;;;19.01;68.54;102246.34;5045603;28;20052;-43
2021/07/16 04:02:49;;;;;;;12.45;5.95;;;;;;;18.98;68.37;102249.88;5047295;28;20059;-46
2021/07/16 04:05:19;;;;;;;9.52;6.78;;;;;;;18.98;68.77;102244.25;5044215;28;20056;-43
2021/07/16 04:07:46;;;;;;;11.20;6.68;;;;;;;18.99;68.68;102245.84;5044695;28;20603;-43
2021/07/16 04:10:19;;;;;;;11.20;6.85;;;;;;;19.04;68.80;102248.38;5048158;28;20052;-44
2021/07/16 04:12:53;;;;;;;12.10;7.28;;;;;;;19.11;68.29;102243.78;5050272;28;20052;-46
2021/07/16 04:15:20;;;;;;;9.65;6.80;;;;;;;19.16;68.34;102248.28;5044023;28;20064;-45
2021/07/16 04:17:48;;;;;;;11.60;6.88;;;;;;;19.13;68.34;102251.81;5049289;28;21683;-45
2021/07/16 04:20:15;;;;;;;12.50;7.35;;;;;;;19.03;68.89;102241.16;5046064;28;20143;-48
2021/07/16 04:22:43;;;;;;;8.77;6.25;;;;;;;18.99;69.05;102249.50;5046438;28;20060;-44
2021/07/16 04:25:14;;;;;;;14.52;7.75;;;;;;;19.00;69.36;102247.50;5045355;28;20600;-44
2021/07/16 04:27:41;;;;;;;10.55;6.10;;;;;;;19.01;69.22;102252.72;5049815;28;20041;-44
2021/07/16 04:30:12;;;;;;;8.88;5.40;;;;;;;19.07;69.55;102254.09;5046906;28;20048;-45
2021/07/16 04:32:40;;;;;;;10.15;6.35;;;;;;;19.13;69.32;102254.63;5050893;28;20055;-44
2021/07/16 04:35:08;;;;;;;12.23;7.15;;;;;;;19.08;69.58;102257.72;5049932;28;20143;-43
2021/07/16 04:37:36;;;;;;;11.20;7.30;;;;;;;19.14;69.42;102256.25;5048054;28;20642;-44
2021/07/16 04:40:05;;;;;;;13.25;7.97;;;;;;;19.11;69.74;102256.97;5044017;28;20466;-44
2021/07/16 04:42:32;;;;;;;17.83;8.68;;;;;;;19.16;69.69;102256.69;5047048;28;20057;-48
2021/07/16 04:44:59;;;;;;;10.23;6.60;;;;;;;19.15;69.75;102257.88;5024902;28;20063;-43
2021/07/16 04:47:26;;;;;;;16.90;7.57;;;;;;;19.13;69.89;102252.63;5049294;28;20044;-43
2021/07/16 04:49:53;;;;;;;10.55;6.80;;;;;;;19.11;69.99;102260.63;5047305;28;22041;-44
2021/07/16 04:52:20;;;;;;;12.48;6.50;;;;;;;19.14;70.28;102261.88;5043850;28;20084;-43
2021/07/16 04:54:47;;;;;;;10.98;6.22;;;;;;;19.24;69.88;102261.28;5045549;28;20067;-48
2021/07/16 04:57:13;;;;;;;9.98;6.55;;;;;;;19.29;69.67;102261.00;5048812;28;20057;-44
2021/07/16 04:59:43;;;;;;;13.25;7.00;;;;;;;19.21;70.17;102259.22;5042479;28;20509;-44
2021/07/16 05:02:10;;;;;;;9.30;5.35;;;;;;;19.17;70.14;102261.94;5046459;28;20135;-43
2021/07/16 05:04:38;;;;;;;8.85;5.72;;;;;;;19.19;70.46;102267.19;5043014;28;20061;-47
2021/07/16 05:07:04;;;;;;;8.38;5.00;;;;;;;19.17;70.48;102263.91;5046186;28;20055;-43
2021/07/16 05:09:31;;;;;;;8.43;4.32;;;;;;;19.19;70.33;102270.00;5046956;28;20080;-44
2021/07/16 05:11:58;;;;;;;8.43;3.95;;;;;;;19.22;70.36;102266.47;5047437;28;20136;-44
2021/07/16 05:14:25;;;;;;;10.32;4.40;;;;;;;19.27;70.29;102271.78;5050638;28;20048;-45
2021/07/16 05:16:52;;;;;;;5.03;3.53;;;;;;;19.24;70.19;102270.53;5047644;28;20075;-44
2021/07/16 05:19:19;;;;;;;6.90;4.28;;;;;;;19.24;70.33;102267.72;5050157;28;20063;-47
2021/07/16 05:21:46;;;;;;;5.45;3.90;;;;;;;19.26;70.32;102270.97;5045607;28;20048;-44
2021/07/16 05:24:13;;;;;;;5.80;3.40;;;;;;;19.30;70.39;102271.06;5049943;28;20052;-44
2021/07/16 05:26:39;;;;;;;5.03;3.22;;;;;;;19.32;70.31;102271.50;5051064;28;20082;-44
2021/07/16 05:29:07;;;;;;;7.75;4.13;;;;;;;19.33;70.42;102268.31;5045582;28;20418;-47
2021/07/16 05:31:34;;;;;;;5.72;3.13;;;;;;;19.38;70.39;102278.47;5045997;28;20152;-44
2021/07/16 05:34:00;;;;;;;5.93;3.22;;;;;;;19.41;70.08;102281.34;5045902;28;20636;-43
2021/07/16 05:36:27;;;;;;;5.25;2.85;;;;;;;19.37;70.28;102282.44;5048144;28;20052;-43
2021/07/16 05:38:54;;;;;;;7.55;3.20;;;;;;;19.39;70.17;102278.13;5045646;28;20702;-52
2021/07/16 05:41:21;;;;;;;7.72;4.28;;;;;;;19.41;70.23;102286.16;5050804;28;20571;-43
2021/07/16 05:43:48;;;;;;;5.57;3.40;;;;;;;19.40;70.32;102282.56;5047848;28;20639;-46
2021/07/16 05:46:14;;;;;;;10.23;4.40;;;;;;;19.42;70.29;102290.59;5047543;28;20060;-43
2021/07/16 05:48:45;;;;;;;4.93;2.90;;;;;;;19.43;70.22;102289.44;5031371;28;20056;-43
2021/07/16 05:51:12;;;;;;;9.38;2.58;;;;;;;19.46;70.27;102291.47;5045061;28;20118;-49
2021/07/16 05:53:39;;;;;;;6.97;2.45;;;;;;;19.47;70.05;102300.72;5044188;28;20541;-44
2021/07/16 05:56:06;;;;;;;4.75;2.55;;;;;;;19.49;70.32;102299.19;5048767;28;20414;-52
2021/07/16 05:58:32;;;;;;;6.85;2.50;;;;;;;19.56;70.21;102292.91;5030931;28;20053;-45
2021/07/16 06:00:59;;;;;;;5.47;2.63;;;;;;;19.57;69.84;102294.53;5047728;28;20143;-43
2021/07/16 06:03:27;;;;;;;5.57;2.63;;;;;;;19.54;70.04;102289.66;5046149;28;20133;-43
2021/07/16 06:05:54;;;;;;;4.13;2.60;;;;;;;19.53;70.21;102291.66;5047298;28;20048;-44
2021/07/16 06:08:21;;;;;;;5.50;2.22;;;;;;;19.60;70.04;102293.78;5048652;28;20071;-43
2021/07/16 06:10:48;;;;;;;5.35;2.70;;;;;;;19.63;69.94;102288.25;5046745;28;20079;-48
2021/07/16 06:13:14;;;;;;;4.03;2.28;;;;;;;19.65;69.87;102285.88;5043842;28;20056;-44
2021/07/16 06:15:44;;;;;;;4.32;2.35;;;;;;;19.71;69.62;102297.63;5024514;28;20052;-43
2021/07/16 06:18:11;;;;;;;5.63;2.72;;;;;;;19.83;69.28;102289.84;5042444;28;20130;-46
2021/07/16 06:20:39;;;;;;;6.18;2.17;;;;;;;19.95;69.07;102306.59;5049571;28;20036;-43
2021/07/16 06:23:06;;;;;;;6.60;2.30;;;;;;;20.04;69.13;102303.56;5046350;28;20040;-43
2021/07/16 06:25:33;;;;;;;4.40;3.15;;;;;;;20.09;69.40;102299.63;5044873;28;20053;-45
2021/07/16 06:28:01;;;;;;;8.77;2.90;;;;;;;20.13;69.11;102306.91;5050550;28;20126;-44
2021/07/16 06:30:28;;;;;;;7.82;2.80;;;;;;;20.20;69.02;102304.22;5045472;28;20057;-53
2021/07/16 06:32:55;;;;;;;9.77;3.00;;;;;;;20.26;68.82;102307.59;5048167;28;20045;-44
2021/07/16 06:35:21;;;;;;;4.60;2.30;;;;;;;20.34;68.92;102310.16;5047547;28;20084;-47
2021/07/16 06:37:48;;;;;;;7.05;2.92;;;;;;;20.36;68.55;102304.97;5047112;28;20056;-44
2021/07/16 06:40:15;;;;;;;5.10;3.20;;;;;;;20.40;68.79;102311.50;5044242;28;20064;-44
2021/07/16 06:42:42;;;;;;;6.10;2.78;;;;;;;20.44;68.59;102312.34;5046326;28;20523;-53
2021/07/16 06:45:09;;;;;;;5.22;2.70;;;;;;;20.55;68.74;102313.34;5045576;28;20063;-49
2021/07/16 06:47:36;;;;;;;8.38;3.00;;;;;;;20.64;68.25;102321.56;5049285;28;20049;-44
2021/07/16 06:50:03;;;;;;;5.90;2.78;;;;;;;20.69;68.38;102312.78;5049689;28;20143;-44
2021/07/16 06:52:33;;;;;;;7.38;2.92;;;;;;;20.69;68.60;102315.59;5044829;28;20173;-47
2021/07/16 06:55:02;;;;;;;5.05;2.75;;;;;;;20.72;68.67;102309.22;5045702;28;20049;-45
2021/07/16 06:57:29;;;;;;;7.80;3.35;;;;;;;20.81;68.65;102304.13;5049483;28;20549;-45
2021/07/16 06:59:56;;;;;;;8.13;2.53;;;;;;;20.95;68.75;102315.63;5042437;28;20041;-50
2021/07/16 07:02:22;;;;;;;6.43;3.28;;;;;;;21.04;68.33;102313.38;5051697;28;20053;-44
2021/07/16 07:04:49;;;;;;;8.18;3.25;;;;;;;21.09;67.95;102310.28;5041619;28;20591;-47
2021/07/16 07:07:16;;;;;;;4.88;3.22;;;;;;;21.08;67.91;102303.00;5048255;28;20140;-49
2021/07/16 07:09:43;;;;;;;7.88;3.72;;;;;;;20.98;68.05;102316.88;5045926;28;20053;-45
2021/07/16 07:12:10;;;;;;;4.00;2.88;;;;;;;20.87;68.44;102311.09;5046855;28;20052;-44
2021/07/16 07:14:37;;;;;;;5.20;3.05;;;;;;;20.83;68.46;102318.66;5049058;28;20144;-43
2021/07/16 07:17:04;;;;;;;9.32;3.53;;;;;;;20.81;68.28;102321.03;5045270;28;20057;-45
2021/07/16 07:19:31;;;;;;;7.43;3.75;;;;;;;20.87;68.71;102315.91;5051644;28;20127;-44
2021/07/16 07:21:58;;;;;;;7.07;3.28;;;;;;;20.90;68.80;102323.59;5046650;28;20045;-43
2021/07/16 07:24:26;;;;;;;6.18;3.55;;;;;;;20.94;68.79;102325.25;5043546;28;20053;-53
2021/07/16 07:26:55;;;;;;;7.07;3.47;;;;;;;20.97;69.34;102330.16;5043726;28;20052;-48
2021/07/16 07:29:22;;;;;;;7.35;2.78;;;;;;;21.02;69.52;102321.38;5049957;28;20052;-43
2021/07/16 07:31:49;;;;;;;4.13;2.80;;;;;;;21.12;69.47;102331.22;5044468;28;20061;-49
2021/07/16 07:34:16;;;;;;;6.60;3.75;;;;;;;21.14;69.55;102328.84;5047446;28;20057;-48
2021/07/16 07:36:48;;;;;;;4.13;3.20;;;;;;;21.17;70.09;102323.28;5047351;28;20059;-44
2021/07/16 07:39:16;;;;;;;8.25;3.83;;;;;;;21.32;70.29;102334.72;5044321;28;20059;-43
2021/07/16 07:41:45;;;;;;;6.13;3.25;;;;;;;21.44;70.51;102331.69;5039033;28;20485;-50
2021/07/16 07:44:14;;;;;;;7.40;2.60;;;;;;;21.62;69.98;102327.13;5040882;28;20061;-52
2021/07/16 07:46:41;;;;;;;6.15;2.60;;;;;;;21.85;69.97;102327.81;5043780;28;20056;-45
2021/07/16 07:49:10;;;;;;;10.93;3.47;;;;;;;22.08;70.07;102341.84;5045403;28;20505;-44
2021/07/16 07:51:38;;;;;;;4.20;2.15;;;;;;;22.26;69.48;102329.53;5043086;28;20370;-46
2021/07/16 07:54:05;;;;;;;4.50;1.88;;;;;;;22.52;69.06;102330.59;5042212;28;20060;-52
2021/07/16 07:56:33;;;;;;;3.10;1.60;;;;;;;22.83;67.56;102342.22;5041152;28;20048;-42
2021/07/16 07:59:02;;;;;;;7.25;1.88;;;;;;;23.24;66.14;102342.94;5041624;28;20068;-46
2021/07/16 08:01:32;;;;;;;2.83;1.83;;;;;;;23.70;64.44;102346.03;5044102;28;20064;-46
2021/07/16 08:03:59;;;;;;;4.78;1.65;;;;;;;24.21;62.24;102348.72;5041118;28;20048;-50
2021/07/16 08:06:26;;;;;;;1.08;0.98;;;;;;;24.88;59.91;102351.69;5039841;28;20053;-42
2021/07/16 08:08:53;;;;;;;3.42;1.38;;;;;;;25.36;57.66;102346.38;5041947;28;20409;-49
2021/07/16 08:11:20;;;;;;;3.00;1.05;;;;;;;25.98;55.35;102347.38;5038836;28;20103;-44
2021/07/16 08:13:50;;;;;;;2.55;1.00;;;;;;;26.60;53.06;102347.47;5040405;28;20885;-46
2021/07/16 08:16:17;;;;;;;2.85;1.10;;;;;;;27.18;51.47;102343.75;5033045;28;20079;-46
2021/07/16 08:18:44;;;;;;;2.70;1.20;;;;;;;27.66;50.01;102348.53;5019207;28;20056;-52
2021/07/16 08:21:14;;;;;;;2.53;1.30;;;;;;;27.88;48.40;102355.56;5021886;28;20213;-43
2021/07/16 08:23:40;;;;;;;1.58;1.20;;;;;;;28.22;47.38;102355.59;5043151;28;20057;-48
2021/07/16 08:26:07;;;;;;;2.33;0.90;;;;;;;28.48;46.26;102351.13;5040843;28;20147;-44
2021/07/16 08:28:34;;;;;;;1.90;1.10;;;;;;;28.76;45.53;102356.41;5028422;28;20055;-43
2021/07/16 08:31:01;;;;;;;2.22;1.00;;;;;;;29.08;44.94;102353.81;5046117;28;20045;-44
2021/07/16 08:33:27;;;;;;;5.45;1.20;;;;;;;29.52;44.01;102350.56;5044675;28;20055;-43
2021/07/16 08:35:54;;;;;;;3.50;1.00;;;;;;;29.62;43.02;102347.94;5039205;28;20053;-48
2021/07/16 08:38:21;;;;;;;2.97;1.00;;;;;;;29.66;42.56;102351.53;5045963;28;20140;-43
2021/07/16 08:40:50;;;;;;;3.50;0.80;;;;;;;29.78;42.08;102350.88;5039768;28;20091;-45
2021/07/16 08:43:22;;;;;;;1.73;0.80;;;;;;;29.84;41.98;102349.16;5045370;28;20126;-43
2021/07/16 08:45:51;;;;;;;2.28;0.90;;;;;;;30.03;41.35;102354.03;5043890;28;20696;-45
2021/07/16 08:48:18;;;;;;;0.63;0.60;;;;;;;30.15;40.82;102350.53;5048556;28;20060;-45
2021/07/16 08:50:45;;;;;;;2.35;0.90;;;;;;;30.21;40.41;102350.81;5042563;28;20127;-51
2021/07/16 08:53:12;;;;;;;1.95;1.00;;;;;;;30.22;39.94;102355.25;5047024;28;20055;-42
2021/07/16 08:55:41;;;;;;;2.60;0.85;;;;;;;30.36;39.73;102355.78;5044321;28;20171;-50
2021/07/16 08:58:10;;;;;;;2.70;0.60;;;;;;;30.53;39.48;102348.81;5045563;28;20049;-46
2021/07/16 09:00:37;;;;;;;0.60;0.60;;;;;;;30.69;38.96;102362.31;5046729;28;20935;-49
2021/07/16 09:03:05;;;;;;;1.08;0.77;;;;;;;30.64;38.80;102365.72;5047167;28;20064;-45
2021/07/16 09:05:40;;;;;;;1.95;0.70;;;;;;;30.68;38.81;102355.81;5048392;28;20048;-43
2021/07/16 09:08:18;;;;;;;2.00;0.75;;;;;;;30.88;38.41;102363.50;5046510;28;20131;-43
2021/07/16 09:10:51;;;;;;;1.35;0.88;;;;;;;31.19;38.18;102359.06;5040500;28;20527;-43
2021/07/16 09:13:19;;;;;;;2.28;0.73;;;;;;;31.60;37.94;102364.88;5046301;28;20092;-49
2021/07/16 09:15:56;;;;;;;2.97;0.77;;;;;;;31.83;37.33;102361.75;5046603;28;20063;-48
2021/07/16 09:18:26;;;;;;;4.20;1.08;;;;;;;31.86;37.02;102365.78;5044932;28;20656;-45
2021/07/16 09:21:02;;;;;;;3.90;1.00;;;;;;;32.02;36.05;102362.06;5043898;28;20057;-50
2021/07/16 09:23:43;;;;;;;3.15;0.80;;;;;;;31.90;36.12;102361.53;5046860;28;20040;-46
2021/07/16 09:26:12;;;;;;;1.48;0.85;;;;;;;31.85;36.12;102362.09;5046392;28;20536;-44
2021/07/16 09:28:44;;;;;;;4.25;1.15;;;;;;;31.65;35.83;102360.66;5044422;28;20692;-50
2021/07/16 09:31:25;;;;;;;1.13;0.70;;;;;;;31.60;35.58;102362.03;5047646;28;20048;-46
2021/07/16 09:33:56;;;;;;;1.23;0.70;;;;;;;31.68;35.92;102360.56;5028133;28;20555;-53
2021/07/16 09:36:34;;;;;;;1.08;0.68;;;;;;;31.74;35.46;102364.50;5044107;28;20521;-47
2021/07/16 09:39:11;;;;;;;2.83;1.45;;;;;;;31.30;36.04;102371.00;5045713;28;20453;-47
2021/07/16 09:41:51;;;;;;;3.10;1.27;;;;;;;30.31;36.69;102376.28;5041935;28;20059;-47
2021/07/16 09:44:46;;;;;;;0.98;0.90;;;;;;;30.11;36.78;102375.50;5044179;28;20171;-43
2021/07/16 09:47:17;;;;;;;1.00;0.80;;;;;;;30.35;37.35;102371.28;5042021;28;21222;-52
2021/07/16 09:49:47;;;;;;;1.48;0.68;;;;;;;30.48;37.49;102374.28;5046701;28;20127;-50
2021/07/16 09:52:16;;;;;;;1.95;0.70;;;;;;;30.67;36.87;102382.81;5027294;28;21678;-45
2021/07/16 09:55:12;;;;;;;7.63;2.53;;;;;;;30.94;36.48;102378.91;5040982;28;20045;-50
2021/07/16 09:57:52;;;;;;;2.50;1.15;;;;;;;31.09;35.91;102380.16;5046690;28;20072;-44
2021/07/16 10:00:26;;;;;;;2.20;0.87;;;;;;;31.29;35.69;102395.16;5050835;28;20063;-43
2021/07/16 10:02:54;;;;;;;1.88;0.70;;;;;;;31.41;35.47;102391.56;5035573;28;20140;-59
2021/07/16 10:05:22;;;;;;;2.20;0.95;;;;;;;31.48;35.40;102385.66;5025501;28;20126;-60
2021/07/16 10:07:52;;;;;;;1.38;0.80;;;;;;;31.29;34.95;102395.97;5047211;28;20131;-61
2021/07/16 10:10:23;;;;;;;0.57;0.50;;;;;;;31.29;34.61;102389.44;5027004;28;20057;-46
2021/07/16 10:12:51;;;;;;;2.35;0.40;;;;;;;31.26;34.58;102391.16;5043972;28;20282;-42
2021/07/16 10:15:20;;;;;;;0.75;0.70;;;;;;;31.20;34.40;102392.94;5046679;28;20053;-46
2021/07/16 10:17:52;;;;;;;2.25;0.90;;;;;;;31.34;34.61;102391.75;5030328;28;20045;-42
2021/07/16 10:20:23;;;;;;;2.08;1.27;;;;;;;31.34;34.44;102391.75;5046987;28;20061;-43
2021/07/16 10:22:53;;;;;;;3.33;0.93;;;;;;;31.12;34.62;102396.44;5045340;28;20056;-43
2021/07/16 10:25:21;;;;;;;1.08;0.60;;;;;;;31.10;34.82;102393.22;5047013;28;20147;-43
2021/07/16 10:27:49;;;;;;;1.30;0.50;;;;;;;30.98;34.87;102391.09;5045530;28;20055;-49
2021/07/16 10:30:19;;;;;;;0.50;0.50;;;;;;;30.91;34.59;102380.63;5044457;28;20053;-51
2021/07/16 10:32:50;;;;;;;0.88;0.47;;;;;;;30.84;34.78;102383.63;5044431;28;20137;-44
2021/07/16 10:35:26;;;;;;;3.10;1.02;;;;;;;30.68;35.07;102390.16;5045284;28;20433;-46
2021/07/16 10:38:18;;;;;;;0.93;0.38;;;;;;;30.67;35.44;102388.53;5044742;28;20053;-44
2021/07/16 10:40:45;;;;;;;0.90;0.60;;;;;;;30.81;35.70;102386.56;5031556;28;20053;-43
2021/07/16 10:43:27;;;;;;;2.40;1.13;;;;;;;30.83;35.47;102381.19;5045996;28;20502;-44
2021/07/16 10:46:01;;;;;;;1.13;0.70;;;;;;;30.72;35.80;102390.03;5044096;28;20118;-45
2021/07/16 10:48:40;;;;;;;1.48;0.50;;;;;;;30.54;35.95;102384.75;5045295;28;20103;-47
2021/07/16 10:51:22;;;;;;;4.55;0.57;;;;;;;30.10;35.29;102386.09;5047342;28;20052;-44
2021/07/16 10:53:49;;;;;;;2.00;0.50;;;;;;;30.07;35.77;102391.91;5044594;28;20060;-43
2021/07/16 10:56:18;;;;;;;2.65;0.40;;;;;;;30.04;36.30;102389.94;5044019;28;20048;-45
2021/07/16 10:58:50;;;;;;;0.63;0.50;;;;;;;29.96;35.94;102388.47;5045986;28;20053;-43
2021/07/16 11:01:34;;;;;;;1.42;0.55;;;;;;;29.77;36.09;102387.19;5040838;28;20045;-51
2021/07/16 11:04:33;;;;;;;3.15;0.75;;;;;;;29.60;35.98;102396.13;5043113;28;20171;-48
2021/07/16 11:07:00;;;;;;;1.00;0.38;;;;;;;29.40;36.27;102390.34;5047342;28;20880;-45
2021/07/16 11:09:33;;;;;;;1.10;0.43;;;;;;;29.33;36.44;102385.59;5041243;28;20750;-47
2021/07/16 11:12:22;;;;;;;2.33;0.68;;;;;;;29.36;36.60;102389.63;5039299;28;20828;-46
2021/07/16 11:14:50;;;;;;;0.80;0.50;;;;;;;29.20;36.79;102387.44;5044990;28;20105;-44
2021/07/16 11:17:30;;;;;;;2.60;0.47;;;;;;;28.98;36.84;102380.47;5026433;28;20088;-43
2021/07/16 11:20:30;;;;;;;0.82;0.47;;;;;;;28.90;37.27;102393.25;5046445;28;20063;-47
2021/07/16 11:23:01;;;;;;;1.33;0.40;;;;;;;28.71;37.85;102388.25;5044483;28;20044;-43
2021/07/16 11:25:50;;;;;;;1.60;0.38;;;;;;;28.62;37.48;102385.16;5044142;28;20066;-44
2021/07/16 11:28:40;;;;;;;1.67;0.45;;;;;;;28.59;37.90;102391.69;5043783;28;20734;-45
2021/07/16 11:31:06;;;;;;;1.90;0.60;;;;;;;28.65;37.88;102390.78;5042145;28;20106;-43
2021/07/16 11:33:36;;;;;;;1.38;0.43;;;;;;;28.69;38.46;102396.44;5044095;28;20076;-46
2021/07/16 11:36:04;;;;;;;1.42;0.57;;;;;;;28.61;38.63;102397.75;5043091;28;20067;-44